createdAt,value
2023-05-09T00:02:32.057Z,101195.25
2023-05-09T00:05:46.918Z,101176.69
2023-05-09T00:08:55.751Z,101186.63
2023-05-09T00:12:03.939Z,101193.56
2023-05-09T00:15:12.731Z,101190.91
2023-05-09T00:18:20.929Z,101188.22
2023-05-09T00:21:35.903Z,101178.06
2023-05-09T00:24:44.492Z,101182.06
2023-05-09T00:27:58.904Z,101176.44
2023-05-09T00:31:13.939Z,101180.38
2023-05-09T00:34:22.620Z,101176.31
2023-05-09T00:37:37.978Z,101185.16
2023-05-09T00:40:46.557Z,101170.69
2023-05-09T00:44:00.921Z,101173.91
2023-05-09T00:47:09.576Z,101178.19
2023-05-09T00:50:17.942Z,101173.88
2023-05-09T00:53:32.894Z,101175.69
2023-05-09T00:56:34.751Z,101168.94
2023-05-09T00:59:56.935Z,101168.13
2023-05-09T01:03:13.018Z,101162.44
2023-05-09T01:06:30.498Z,101175.31
2023-05-09T01:09:38.953Z,101174.28
2023-05-09T01:13:46.911Z,101178.03
2023-05-09T01:17:34.178Z,101175.38
2023-05-09T01:21:05.890Z,101168.66
2023-05-09T01:24:32.945Z,101165.13
2023-05-09T01:28:00.003Z,101166.13
2023-05-09T01:31:10.933Z,101170.41
2023-05-09T01:34:29.926Z,101168.28
2023-05-09T01:37:34.151Z,101172.78
2023-05-09T01:40:49.906Z,101173.06
2023-05-09T01:44:09.964Z,101171.69
2023-05-09T01:47:25.931Z,101168.22
2023-05-09T01:50:35.926Z,101151.06
2023-05-09T01:53:53.930Z,101154.78
2023-05-09T01:56:56.799Z,101148.66
2023-05-09T02:00:12.938Z,101132.75
2023-05-09T02:03:34.927Z,101147.25
2023-05-09T02:06:43.940Z,101152.59
2023-05-09T02:10:01.941Z,101153.69
2023-05-09T02:13:10.994Z,101148.06
2023-05-09T02:16:25.960Z,101139.50
2023-05-09T02:19:41.897Z,101141.09
2023-05-09T02:22:56.908Z,101134.66
2023-05-09T02:26:12.946Z,101138.13
2023-05-09T02:29:30.187Z,101135.69
2023-05-09T02:32:46.935Z,101140.50
2023-05-09T02:35:56.480Z,101132.25
2023-05-09T02:39:10.938Z,101135.69
2023-05-09T02:42:15.860Z,101132.97
2023-05-09T02:45:30.911Z,101131.09
2023-05-09T02:48:39.463Z,101130.56
2023-05-09T02:51:53.912Z,101116.00
2023-05-09T02:55:01.930Z,101132.16
2023-05-09T02:58:16.952Z,101124.63
2023-05-09T03:01:24.943Z,101129.44
2023-05-09T03:04:46.905Z,101128.03
2023-05-09T03:07:48.723Z,101126.41
2023-05-09T03:11:03.897Z,101127.22
2023-05-09T03:14:11.925Z,101127.47
2023-05-09T03:17:20.458Z,101126.69
2023-05-09T03:20:34.958Z,101128.03
2023-05-09T03:23:43.509Z,101119.97
2023-05-09T03:26:51.918Z,101121.63
2023-05-09T03:30:06.932Z,101122.69
2023-05-09T03:33:14.927Z,101121.63
2023-05-09T03:36:29.917Z,101132.06
2023-05-09T03:39:31.769Z,101133.88
2023-05-09T03:42:46.908Z,101137.94
2023-05-09T03:46:01.922Z,101121.78
2023-05-09T03:49:03.759Z,101137.94
2023-05-09T03:52:18.936Z,101137.94
2023-05-09T03:55:27.504Z,101136.06
2023-05-09T03:58:35.924Z,101137.59
2023-05-09T04:01:57.956Z,101146.59
2023-05-09T04:05:06.940Z,101138.84
2023-05-09T04:08:21.938Z,101138.37
2023-05-09T04:11:30.591Z,101140.50
2023-05-09T04:14:48.779Z,101121.31
2023-05-09T04:17:57.984Z,101133.28
2023-05-09T04:21:06.534Z,101124.41
2023-05-09T04:24:20.927Z,101141.25
2023-05-09T04:27:29.685Z,101138.63
2023-05-09T04:30:37.988Z,101147.31
2023-05-09T04:33:52.951Z,101138.25
2023-05-09T04:37:01.517Z,101145.78
2023-05-09T04:40:10.001Z,101140.75
2023-05-09T04:43:18.477Z,101140.28
2023-05-09T04:46:32.966Z,101144.84
2023-05-09T04:49:41.525Z,101158.66
2023-05-09T04:52:55.939Z,101144.59
2023-05-09T04:56:04.721Z,101152.59
2023-05-09T04:59:19.970Z,101143.72
2023-05-09T05:02:41.949Z,101142.41
2023-05-09T05:05:56.925Z,101129.63
2023-05-09T05:09:04.919Z,101145.28
2023-05-09T05:12:13.469Z,101142.59
2023-05-09T05:15:27.925Z,101146.38
2023-05-09T05:18:35.932Z,101149.06
2023-05-09T05:21:44.494Z,101146.44
2023-05-09T05:24:53.201Z,101149.16
2023-05-09T05:28:07.922Z,101143.28
2023-05-09T05:31:09.856Z,101157.03
2023-05-09T05:34:24.918Z,101134.28
2023-05-09T05:37:33.923Z,101152.06
2023-05-09T05:40:42.504Z,101147.31
2023-05-09T05:43:56.964Z,101155.41
2023-05-09T05:46:58.853Z,101147.91
2023-05-09T05:50:14.937Z,101149.78
2023-05-09T05:53:23.488Z,101156.25
2023-05-09T05:56:37.970Z,101152.53
2023-05-09T05:59:39.860Z,101152.81
2023-05-09T06:03:02.008Z,101149.88
2023-05-09T06:06:04.900Z,101157.69
2023-05-09T06:09:19.922Z,101156.34
2023-05-09T06:12:34.923Z,101142.16
2023-05-09T06:15:49.923Z,101151.28
2023-05-09T06:18:53.413Z,101157.72
2023-05-09T06:22:10.921Z,101153.91
2023-05-09T06:25:18.957Z,101161.41
2023-05-09T06:28:27.529Z,101146.59
2023-05-09T06:31:41.982Z,101146.75
2023-05-09T06:34:49.952Z,101137.03
2023-05-09T06:37:58.465Z,101152.81
2023-05-09T06:41:06.940Z,101142.53
2023-05-09T06:44:21.919Z,101122.25
2023-05-09T06:47:30.541Z,101153.94
2023-05-09T06:50:38.930Z,101131.38
2023-05-09T06:53:47.477Z,101137.44
2023-05-09T06:56:55.933Z,101130.91
2023-05-09T07:00:11.942Z,101117.47
2023-05-09T07:03:26.947Z,101118.97
2023-05-09T07:06:41.956Z,101113.00
2023-05-09T07:09:52.943Z,101114.75
2023-05-09T07:13:15.958Z,101108.78
2023-05-09T07:16:26.369Z,101113.22
2023-05-09T07:19:41.289Z,101116.47
2023-05-09T07:22:57.267Z,101108.41
2023-05-09T07:26:05.929Z,101112.41
2023-05-09T07:29:13.985Z,101101.25
2023-05-09T07:32:28.981Z,101102.78
2023-05-09T07:35:45.135Z,101099.47
2023-05-09T07:38:59.914Z,101093.34
2023-05-09T07:42:08.028Z,101090.09
2023-05-09T07:45:23.938Z,101084.03
2023-05-09T07:48:32.986Z,101082.69
2023-05-09T07:51:41.520Z,101085.56
2023-05-09T07:54:51.312Z,101071.75
2023-05-09T07:58:05.934Z,101078.78
2023-05-09T08:01:13.945Z,101059.69
2023-05-09T08:04:29.289Z,101067.63
2023-05-09T08:07:43.982Z,101065.66
2023-05-09T08:10:46.154Z,101068.88
2023-05-09T08:14:01.988Z,101054.28
2023-05-09T08:17:16.993Z,101044.47
2023-05-09T08:20:26.137Z,101053.22
2023-05-09T08:23:34.816Z,101043.19
2023-05-09T08:26:49.973Z,101027.19
2023-05-09T08:29:58.807Z,101037.97
2023-05-09T08:33:14.938Z,101039.59
2023-05-09T08:36:29.978Z,101022.03
2023-05-09T08:39:38.576Z,101037.81
2023-05-09T08:42:46.952Z,101040.78
2023-05-09T08:46:05.051Z,101041.47
2023-05-09T08:49:20.972Z,101029.31
2023-05-09T08:52:39.014Z,101035.12
2023-05-09T08:55:53.972Z,101031.66
2023-05-09T08:59:11.010Z,101028.00
2023-05-09T09:02:20.950Z,101024.06
2023-05-09T09:05:41.262Z,100985.38
2023-05-09T09:08:59.011Z,101022.12
2023-05-09T09:12:09.421Z,101009.44
2023-05-09T09:15:21.959Z,101006.84
2023-05-09T09:18:41.963Z,101012.28
2023-05-09T09:21:59.951Z,101007.25
2023-05-09T09:25:09.037Z,101014.78
2023-05-09T09:28:17.852Z,101007.69
2023-05-09T09:31:37.980Z,101011.41
2023-05-09T09:34:48.401Z,101005.88
2023-05-09T09:37:59.735Z,101006.16
2023-05-09T09:41:14.950Z,101000.78
2023-05-09T09:44:23.607Z,101005.50
2023-05-09T09:47:39.047Z,101009.41
2023-05-09T09:50:41.011Z,101005.19
2023-05-09T09:53:55.943Z,101004.25
2023-05-09T09:56:57.750Z,101007.94
2023-05-09T10:00:15.107Z,100999.81
2023-05-09T10:03:41.487Z,100999.09
2023-05-09T10:07:01.955Z,100998.88
2023-05-09T10:10:12.277Z,100987.78
2023-05-09T10:13:27.004Z,100969.13
2023-05-09T10:16:42.756Z,100968.78
2023-05-09T10:20:01.012Z,100979.03
2023-05-09T10:23:10.254Z,100973.84
2023-05-09T10:26:30.962Z,100983.09
2023-05-09T10:29:58.128Z,100971.72
2023-05-09T10:33:08.172Z,100969.09
2023-05-09T10:36:27.991Z,100966.53
2023-05-09T10:39:43.956Z,100970.28
2023-05-09T10:42:52.656Z,100975.91
2023-05-09T10:46:01.975Z,100970.81
2023-05-09T10:49:10.892Z,100967.09
2023-05-09T10:52:18.961Z,100969.37
2023-05-09T10:55:55.003Z,100967.91
2023-05-09T10:59:15.374Z,100977.69
2023-05-09T11:02:30.592Z,100966.91
2023-05-09T11:05:45.981Z,100968.22
2023-05-09T11:08:54.552Z,100958.53
2023-05-09T11:12:12.009Z,100956.28
2023-05-09T11:15:26.974Z,100960.44
2023-05-09T11:18:36.027Z,100948.38
2023-05-09T11:22:01.181Z,100946.00
2023-05-09T11:25:15.305Z,100934.47
2023-05-09T11:28:38.990Z,100938.31
2023-05-09T11:32:07.383Z,100921.34
2023-05-09T11:35:27.053Z,100926.88
2023-05-09T11:38:50.316Z,100925.91
2023-05-09T11:41:58.727Z,100937.72
2023-05-09T11:45:15.204Z,100931.75
2023-05-09T11:48:21.873Z,100904.13
2023-05-09T11:51:36.968Z,100924.41
2023-05-09T11:54:39.648Z,100918.53
2023-05-09T11:57:57.062Z,100919.72
2023-05-09T12:01:19.991Z,100924.87
2023-05-09T12:04:39.249Z,100907.72
2023-05-09T12:07:48.269Z,100904.63
2023-05-09T12:10:57.013Z,100897.97
2023-05-09T12:14:05.559Z,100902.69
2023-05-09T12:17:19.972Z,100889.75
2023-05-09T12:20:35.054Z,100888.63
2023-05-09T12:23:43.976Z,100894.50
2023-05-09T12:27:01.025Z,100884.63
2023-05-09T12:30:11.218Z,100888.84
2023-05-09T12:33:40.031Z,100880.34
2023-05-09T12:36:45.036Z,100880.34
2023-05-09T12:40:19.069Z,100872.22
2023-05-09T12:43:30.976Z,100872.22
2023-05-09T12:46:40.062Z,100866.94
2023-05-09T12:49:51.642Z,100865.31
2023-05-09T12:53:03.360Z,100867.66
2023-05-09T12:56:21.128Z,100871.72
2023-05-09T12:59:32.652Z,100853.78
2023-05-09T13:02:44.055Z,100846.34
2023-05-09T13:06:07.977Z,100842.94
2023-05-09T13:09:17.612Z,100841.56
2023-05-09T13:12:31.995Z,100839.03
2023-05-09T13:15:46.988Z,100826.28
2023-05-09T13:19:02.000Z,100835.88
2023-05-09T13:22:17.011Z,100826.47
2023-05-09T13:25:18.898Z,100823.00
2023-05-09T13:28:33.988Z,100811.44
2023-05-09T13:31:48.991Z,100821.06
2023-05-09T13:35:03.995Z,100809.91
2023-05-09T13:38:12.560Z,100816.22
2023-05-09T13:41:26.983Z,100820.91
2023-05-09T13:44:35.003Z,100808.84
2023-05-09T13:47:50.027Z,100810.19
2023-05-09T13:50:58.010Z,100807.47
2023-05-09T13:54:06.852Z,100812.19
2023-05-09T13:57:15.005Z,100797.59
2023-05-09T14:00:23.837Z,100800.50
2023-05-09T14:03:46.071Z,100796.09
2023-05-09T14:07:02.083Z,100792.31
2023-05-09T14:13:22.191Z,100764.44
2023-05-09T14:16:24.241Z,100773.00
2023-05-09T14:19:38.986Z,100764.62
2023-05-09T14:22:54.053Z,100779.25
2023-05-09T14:26:02.943Z,100772.81
2023-05-09T14:29:12.064Z,100779.72
2023-05-09T14:32:27.026Z,100775.78
2023-05-09T14:35:35.822Z,100771.34
2023-05-09T14:38:45.006Z,100763.63
2023-05-09T14:41:59.999Z,100754.25
2023-05-09T14:45:01.899Z,100753.94
2023-05-09T14:48:17.061Z,100753.56
2023-05-09T14:51:31.997Z,100748.63
2023-05-09T14:54:47.016Z,100755.97
2023-05-09T14:58:02.022Z,100749.44
2023-05-09T15:01:11.054Z,100751.25
2023-05-09T15:04:26.364Z,100741.94
2023-05-09T15:07:41.997Z,100752.72
2023-05-09T15:10:57.011Z,100739.53
2023-05-09T15:14:05.006Z,100740.88
2023-05-09T15:17:13.695Z,100738.47
2023-05-09T15:20:27.991Z,100749.28
2023-05-09T15:23:36.696Z,100734.72
2023-05-09T15:26:50.986Z,100716.53
2023-05-09T15:30:00.063Z,100731.56
2023-05-09T15:33:15.006Z,100724.63
2023-05-09T15:36:30.139Z,100722.16
2023-05-09T15:39:46.022Z,100718.78
2023-05-09T15:43:01.085Z,100716.44
2023-05-09T15:46:09.633Z,100713.91
2023-05-09T15:49:18.023Z,100714.59
2023-05-09T15:52:33.034Z,100704.34
2023-05-09T15:55:41.118Z,100705.03
2023-05-09T15:58:56.012Z,100695.00
2023-05-09T16:02:04.163Z,100694.66
2023-05-09T16:05:26.055Z,100690.34
2023-05-09T16:08:34.619Z,100697.87
2023-05-09T16:11:49.024Z,100691.37
2023-05-09T16:14:57.711Z,100698.41
2023-05-09T16:18:06.029Z,100684.59
2023-05-09T16:21:14.641Z,100687.22
2023-05-09T16:24:29.070Z,100689.47
2023-05-09T16:27:45.051Z,100696.81
2023-05-09T16:31:00.107Z,100696.62
2023-05-09T16:34:08.091Z,100700.00
2023-05-09T16:37:16.756Z,100694.78
2023-05-09T16:40:25.387Z,100685.72
2023-05-09T16:43:33.623Z,100682.38
2023-05-09T16:46:48.030Z,100675.34
2023-05-09T16:49:50.322Z,100667.87
2023-05-09T16:53:05.049Z,100674.56
2023-05-09T16:56:13.037Z,100666.63
2023-05-09T16:59:21.609Z,100661.34
2023-05-09T17:02:30.073Z,100663.13
2023-05-09T17:05:45.293Z,100670.66
2023-05-09T17:09:00.034Z,100668.13
2023-05-09T17:12:08.093Z,100668.97
2023-05-09T17:15:16.975Z,100669.78
2023-05-09T17:18:37.025Z,100666.91
2023-05-09T17:21:53.029Z,100667.56
2023-05-09T17:25:08.045Z,100666.91
2023-05-09T17:28:16.541Z,100666.41
2023-05-09T17:31:31.024Z,100673.97
2023-05-09T17:34:46.055Z,100665.97
2023-05-09T17:38:01.028Z,100670.25
2023-05-09T17:41:02.968Z,100665.00
2023-05-09T17:44:19.024Z,100657.22
2023-05-09T17:47:27.117Z,100661.50
2023-05-09T17:50:35.615Z,100663.13
2023-05-09T17:53:50.036Z,100665.31
2023-05-09T17:57:02.036Z,100659.91
2023-05-09T18:00:18.137Z,100659.28
2023-05-09T18:03:36.175Z,100661.34
2023-05-09T18:06:56.048Z,100659.25
2023-05-09T18:10:12.022Z,100661.16
2023-05-09T18:13:20.082Z,100660.34
2023-05-09T18:16:36.123Z,100655.25
2023-05-09T18:19:38.202Z,100664.72
2023-05-09T18:22:54.051Z,100666.69
2023-05-09T18:26:02.574Z,100669.66
2023-05-09T18:29:11.046Z,100668.81
2023-05-09T18:32:26.177Z,100671.37
2023-05-09T18:35:41.080Z,100677.22
2023-05-09T18:38:43.072Z,100679.88
2023-05-09T18:41:58.045Z,100678.75
2023-05-09T18:45:06.071Z,100687.47
2023-05-09T18:48:17.494Z,100680.38
2023-05-09T18:51:33.063Z,100694.97
2023-05-09T18:54:41.888Z,100696.72
2023-05-09T18:57:50.492Z,100690.66
2023-05-09T19:01:06.075Z,100702.78
2023-05-09T19:04:15.792Z,100701.09
2023-05-09T19:07:32.017Z,100697.59
2023-05-09T19:10:35.396Z,100701.37
2023-05-09T19:13:51.120Z,100697.06
2023-05-09T19:17:07.434Z,100699.44
2023-05-09T19:20:17.365Z,100702.75
2023-05-09T19:23:27.649Z,100696.69
2023-05-09T19:26:37.812Z,100697.13
2023-05-09T19:29:49.687Z,100692.56
2023-05-09T19:33:06.596Z,100683.34
2023-05-09T19:36:16.286Z,100687.22
2023-05-09T19:39:26.479Z,100687.38
2023-05-09T19:42:37.794Z,100691.75
2023-05-09T19:45:47.627Z,100680.84
2023-05-09T19:49:03.314Z,100692.19
2023-05-09T19:52:19.457Z,100684.19
2023-05-09T19:55:22.610Z,100685.13
2023-05-09T19:58:38.086Z,100685.25
2023-05-09T20:01:40.511Z,100682.66
2023-05-09T20:05:02.058Z,100681.94
2023-05-09T20:08:17.702Z,100681.94
2023-05-09T20:11:20.265Z,100675.25
2023-05-09T20:14:35.622Z,100672.69
2023-05-09T20:17:44.692Z,100677.09
2023-05-09T20:21:00.637Z,100688.00
2023-05-09T20:24:15.766Z,100676.41
2023-05-09T20:27:31.666Z,100681.91
2023-05-09T20:30:40.586Z,100686.50
2023-05-09T20:33:55.673Z,100681.91
2023-05-09T20:37:11.581Z,100682.50
2023-05-09T20:40:14.439Z,100676.94
2023-05-09T20:43:29.566Z,100675.81
2023-05-09T20:46:38.484Z,100674.00
2023-05-09T20:49:46.944Z,100667.34
2023-05-09T20:53:02.166Z,100651.75
2023-05-09T20:56:11.016Z,100661.03
2023-05-09T20:59:26.021Z,100657.94
2023-05-09T21:02:35.084Z,100655.75
2023-05-09T21:05:50.508Z,100664.91
2023-05-09T21:09:05.029Z,100651.75
2023-05-09T21:12:20.053Z,100655.91
2023-05-09T21:15:28.542Z,100636.34
2023-05-09T21:18:43.039Z,100655.72
2023-05-09T21:21:51.607Z,100647.94
2023-05-09T21:25:00.019Z,100647.13
2023-05-09T21:28:15.047Z,100658.69
2023-05-09T21:31:23.682Z,100653.81
2023-05-09T21:34:38.028Z,100645.22
2023-05-09T21:37:52.986Z,100646.75
2023-05-09T21:41:08.035Z,100649.12
2023-05-09T21:44:09.928Z,100643.56
2023-05-09T21:47:25.159Z,100634.38
2023-05-09T21:50:34.010Z,100640.75
2023-05-09T21:53:42.627Z,100635.97
2023-05-09T21:56:51.007Z,100636.56
2023-05-09T21:59:59.650Z,100645.94
2023-05-09T22:03:08.105Z,100633.37
2023-05-09T22:06:30.037Z,100636.56
2023-05-09T22:09:38.572Z,100641.66
2023-05-09T22:12:47.056Z,100636.06
2023-05-09T22:15:55.697Z,100642.03
2023-05-09T22:19:04.045Z,100638.66
2023-05-09T22:22:13.122Z,100635.19
2023-05-09T22:25:21.027Z,100637.56
2023-05-09T22:28:29.585Z,100633.69
2023-05-09T22:31:44.071Z,100640.75
2023-05-09T22:34:49.056Z,100638.06
2023-05-09T22:38:04.039Z,100636.97
2023-05-09T22:41:14.222Z,100637.78
2023-05-09T22:44:22.086Z,100638.56
2023-05-09T22:47:30.701Z,100631.59
2023-05-09T22:50:39.088Z,100634.88
2023-05-09T22:54:01.069Z,100632.56
2023-05-09T22:57:09.828Z,100631.59
2023-05-09T23:00:25.069Z,100629.78
2023-05-09T23:03:33.110Z,100634.59
2023-05-09T23:06:48.318Z,100631.75
2023-05-09T23:09:57.060Z,100614.50
2023-05-09T23:13:05.763Z,100625.19
2023-05-09T23:16:21.113Z,100631.34
2023-05-09T23:19:23.166Z,100624.56
2023-05-09T23:22:38.088Z,100618.09
2023-05-09T23:25:46.078Z,100622.88
2023-05-09T23:29:01.130Z,100635.75
2023-05-09T23:32:03.010Z,100626.38
2023-05-09T23:35:18.056Z,100631.34
2023-05-09T23:38:19.995Z,100631.66
2023-05-09T23:41:35.080Z,100627.16
2023-05-09T23:44:43.075Z,100631.81
2023-05-09T23:47:58.103Z,100623.22
2023-05-09T23:51:13.067Z,100624.72
2023-05-09T23:54:14.946Z,100616.75
2023-05-09T23:57:30.126Z,100607.03
